sensor_id;sensor_type;location;lat;lon;timestamp;temperature;humidity
36556;DHT22;40859;50.560;7.268;2022-12-07T16:06:18;20.50;85.40
36556;DHT22;40859;50.560;7.268;2022-12-07T16:08:46;20.50;86.10
36556;DHT22;40859;50.560;7.268;2022-12-07T16:11:12;20.60;85.40
36556;DHT22;40859;50.560;7.268;2022-12-07T16:13:40;20.50;85.30
36556;DHT22;40859;50.560;7.268;2022-12-07T16:16:09;20.50;85.20
36556;DHT22;40859;50.560;7.268;2022-12-07T16:18:36;20.60;85.40
36556;DHT22;40859;50.560;7.268;2022-12-07T16:21:02;20.60;85.40
36556;DHT22;40859;50.560;7.268;2022-12-07T16:23:29;20.60;85.40
36556;DHT22;40859;50.560;7.268;2022-12-07T16:26:02;20.50;85.30
36556;DHT22;40859;50.560;7.268;2022-12-07T16:28:28;20.50;85.30
36556;DHT22;40859;50.560;7.268;2022-12-07T16:32:18;20.50;85.30
36556;DHT22;40859;50.560;7.268;2022-12-07T16:34:43;20.60;85.30
36556;DHT22;40859;50.560;7.268;2022-12-07T16:37:09;20.60;85.40
36556;DHT22;40859;50.560;7.268;2022-12-07T16:39:35;20.60;85.40
36556;DHT22;40859;50.560;7.268;2022-12-07T16:42:01;20.60;85.60
36556;DHT22;40859;50.560;7.268;2022-12-07T16:44:28;20.60;85.80
36556;DHT22;40859;50.560;7.268;2022-12-07T16:46:54;20.60;86.00
36556;DHT22;40859;50.560;7.268;2022-12-07T16:49:21;20.60;86.10
36556;DHT22;40859;50.560;7.268;2022-12-07T16:51:51;20.60;86.20
36556;DHT22;40859;50.560;7.268;2022-12-07T16:54:17;20.60;86.20
36556;DHT22;40859;50.560;7.268;2022-12-07T16:56:43;20.60;86.20
36556;DHT22;40859;50.560;7.268;2022-12-07T17:02:17;20.60;86.20
36556;DHT22;40859;50.560;7.268;2022-12-07T17:04:44;20.60;86.90
36556;DHT22;40859;50.560;7.268;2022-12-07T17:07:10;20.60;87.20
36556;DHT22;40859;50.560;7.268;2022-12-07T17:09:36;20.60;87.10
36556;DHT22;40859;50.560;7.268;2022-12-07T17:12:02;20.60;87.20
36556;DHT22;40859;50.560;7.268;2022-12-07T17:14:31;20.60;87.30
36556;DHT22;40859;50.560;7.268;2022-12-07T17:17:15;20.60;87.90
36556;DHT22;40859;50.560;7.268;2022-12-07T17:19:41;20.70;88.30
36556;DHT22;40859;50.560;7.268;2022-12-07T17:22:07;20.70;88.30
36556;DHT22;40859;50.560;7.268;2022-12-07T17:24:37;20.70;88.70
36556;DHT22;40859;50.560;7.268;2022-12-07T17:27:03;20.70;88.40
36556;DHT22;40859;50.560;7.268;2022-12-07T17:29:30;20.70;88.40
36556;DHT22;40859;50.560;7.268;2022-12-07T17:31:55;20.70;88.10
36556;DHT22;40859;50.560;7.268;2022-12-07T17:34:21;20.70;88.00
36556;DHT22;40859;50.560;7.268;2022-12-07T17:36:47;20.70;87.90
36556;DHT22;40859;50.560;7.268;2022-12-07T17:39:19;20.70;87.90
36556;DHT22;40859;50.560;7.268;2022-12-07T17:41:46;20.70;87.60
36556;DHT22;40859;50.560;7.268;2022-12-07T17:45:35;20.70;87.50
36556;DHT22;40859;50.560;7.268;2022-12-07T17:48:04;20.70;87.40
36556;DHT22;40859;50.560;7.268;2022-12-07T17:50:30;20.60;87.30
36556;DHT22;40859;50.560;7.268;2022-12-07T17:53:14;20.70;87.30
36556;DHT22;40859;50.560;7.268;2022-12-07T17:55:40;20.60;87.20
36556;DHT22;40859;50.560;7.268;2022-12-07T17:58:06;20.60;87.20
36556;DHT22;40859;50.560;7.268;2022-12-07T18:00:33;20.60;87.20
36556;DHT22;40859;50.560;7.268;2022-12-07T18:03:05;20.60;87.20
36556;DHT22;40859;50.560;7.268;2022-12-07T18:05:35;20.70;87.20
36556;DHT22;40859;50.560;7.268;2022-12-07T18:08:01;20.70;87.10
36556;DHT22;40859;50.560;7.268;2022-12-07T18:10:27;20.70;87.10
36556;DHT22;40859;50.560;7.268;2022-12-07T18:12:54;20.70;87.00
36556;DHT22;40859;50.560;7.268;2022-12-07T18:16:08;20.70;87.00
36556;DHT22;40859;50.560;7.268;2022-12-07T18:18:35;20.70;86.90
36556;DHT22;40859;50.560;7.268;2022-12-07T18:21:03;20.70;86.90
36556;DHT22;40859;50.560;7.268;2022-12-07T18:23:30;20.70;86.90
36556;DHT22;40859;50.560;7.268;2022-12-07T18:25:56;20.70;86.60
36556;DHT22;40859;50.560;7.268;2022-12-07T18:28:22;20.70;86.90
36556;DHT22;40859;50.560;7.268;2022-12-07T18:30:48;20.70;86.90
36556;DHT22;40859;50.560;7.268;2022-12-07T18:33:19;20.70;86.80
36556;DHT22;40859;50.560;7.268;2022-12-07T18:35:46;20.70;86.70
36556;DHT22;40859;50.560;7.268;2022-12-07T18:38:14;20.70;86.90
36556;DHT22;40859;50.560;7.268;2022-12-07T18:40:41;20.70;86.60
36556;DHT22;40859;50.560;7.268;2022-12-07T18:43:09;20.70;86.50
36556;DHT22;40859;50.560;7.268;2022-12-07T18:45:41;20.70;86.50
36556;DHT22;40859;50.560;7.268;2022-12-07T18:48:08;20.70;86.50
36556;DHT22;40859;50.560;7.268;2022-12-07T18:50:35;20.70;86.40
36556;DHT22;40859;50.560;7.268;2022-12-07T18:53:02;20.70;86.40
36556;DHT22;40859;50.560;7.268;2022-12-07T18:55:28;20.70;86.30
36556;DHT22;40859;50.560;7.268;2022-12-07T18:57:56;20.70;86.30
36556;DHT22;40859;50.560;7.268;2022-12-07T19:00:24;20.70;86.20
36556;DHT22;40859;50.560;7.268;2022-12-07T19:02:51;20.70;86.10
36556;DHT22;40859;50.560;7.268;2022-12-07T19:05:17;20.70;86.10
36556;DHT22;40859;50.560;7.268;2022-12-07T19:07:44;20.70;86.10
36556;DHT22;40859;50.560;7.268;2022-12-07T19:10:11;20.70;86.00
36556;DHT22;40859;50.560;7.268;2022-12-07T19:12:38;20.70;85.90
36556;DHT22;40859;50.560;7.268;2022-12-07T19:15:06;20.70;86.20
36556;DHT22;40859;50.560;7.268;2022-12-07T19:17:34;20.70;87.90
36556;DHT22;40859;50.560;7.268;2022-12-07T19:20:02;20.70;88.40
36556;DHT22;40859;50.560;7.268;2022-12-07T19:22:29;20.70;87.60
36556;DHT22;40859;50.560;7.268;2022-12-07T19:27:24;20.70;86.20
36556;DHT22;40859;50.560;7.268;2022-12-07T19:29:51;20.70;86.50
36556;DHT22;40859;50.560;7.268;2022-12-07T19:37:15;20.70;86.30
36556;DHT22;40859;50.560;7.268;2022-12-07T19:39:41;20.70;86.20
36556;DHT22;40859;50.560;7.268;2022-12-07T19:42:13;20.70;86.20
36556;DHT22;40859;50.560;7.268;2022-12-07T19:44:39;20.70;86.10
36556;DHT22;40859;50.560;7.268;2022-12-07T19:47:06;20.70;86.00
36556;DHT22;40859;50.560;7.268;2022-12-07T19:49:34;20.70;85.90
36556;DHT22;40859;50.560;7.268;2022-12-07T19:52:02;20.70;85.90
36556;DHT22;40859;50.560;7.268;2022-12-07T19:54:30;20.70;85.80
36556;DHT22;40859;50.560;7.268;2022-12-07T19:56:57;20.70;85.80
36556;DHT22;40859;50.560;7.268;2022-12-07T19:59:25;20.70;85.80
36556;DHT22;40859;50.560;7.268;2022-12-07T20:01:56;20.70;85.80
36556;DHT22;40859;50.560;7.268;2022-12-07T20:04:24;20.70;85.80
36556;DHT22;40859;50.560;7.268;2022-12-07T20:06:54;20.70;85.80
36556;DHT22;40859;50.560;7.268;2022-12-07T20:09:20;20.70;85.80
36556;DHT22;40859;50.560;7.268;2022-12-07T20:11:47;20.70;85.80
36556;DHT22;40859;50.560;7.268;2022-12-07T20:14:32;20.70;85.80
36556;DHT22;40859;50.560;7.268;2022-12-07T20:16:59;20.70;85.80
36556;DHT22;40859;50.560;7.268;2022-12-07T20:19:25;20.70;85.80
36556;DHT22;40859;50.560;7.268;2022-12-07T20:21:51;20.70;85.90
36556;DHT22;40859;50.560;7.268;2022-12-07T20:24:21;20.70;85.80
36556;DHT22;40859;50.560;7.268;2022-12-07T20:26:50;20.70;85.90
36556;DHT22;40859;50.560;7.268;2022-12-07T20:29:19;20.70;85.90
36556;DHT22;40859;50.560;7.268;2022-12-07T20:31:47;20.70;85.90
36556;DHT22;40859;50.560;7.268;2022-12-07T20:34:14;20.70;85.90
36556;DHT22;40859;50.560;7.268;2022-12-07T20:36:40;20.70;85.90
36556;DHT22;40859;50.560;7.268;2022-12-07T20:39:06;20.70;85.80
36556;DHT22;40859;50.560;7.268;2022-12-07T20:41:33;20.70;85.90
36556;DHT22;40859;50.560;7.268;2022-12-07T20:44:18;20.70;85.80
36556;DHT22;40859;50.560;7.268;2022-12-07T20:46:44;20.70;87.90
36556;DHT22;40859;50.560;7.268;2022-12-07T20:49:12;20.70;90.00
36556;DHT22;40859;50.560;7.268;2022-12-07T20:51:39;20.70;90.10
36556;DHT22;40859;50.560;7.268;2022-12-07T20:54:05;20.70;90.20
36556;DHT22;40859;50.560;7.268;2022-12-07T20:56:31;20.70;89.70
36556;DHT22;40859;50.560;7.268;2022-12-07T20:59:00;20.70;88.80
36556;DHT22;40859;50.560;7.268;2022-12-07T21:01:26;20.70;88.10
36556;DHT22;40859;50.560;7.268;2022-12-07T21:03:54;20.70;87.60
36556;DHT22;40859;50.560;7.268;2022-12-07T21:06:21;20.70;87.30
36556;DHT22;40859;50.560;7.268;2022-12-07T21:08:49;20.70;87.20
36556;DHT22;40859;50.560;7.268;2022-12-07T21:11:19;20.70;86.90
36556;DHT22;40859;50.560;7.268;2022-12-07T21:13:46;20.70;86.80
36556;DHT22;40859;50.560;7.268;2022-12-07T21:17:14;20.70;86.70
36556;DHT22;40859;50.560;7.268;2022-12-07T21:19:40;20.70;86.50
36556;DHT22;40859;50.560;7.268;2022-12-07T21:22:06;20.70;86.50
36556;DHT22;40859;50.560;7.268;2022-12-07T21:24:33;20.70;86.40
36556;DHT22;40859;50.560;7.268;2022-12-07T21:26:59;20.70;86.40
36556;DHT22;40859;50.560;7.268;2022-12-07T21:29:26;20.70;86.30
36556;DHT22;40859;50.560;7.268;2022-12-07T21:31:52;20.70;86.30
36556;DHT22;40859;50.560;7.268;2022-12-07T21:34:18;20.70;86.30
36556;DHT22;40859;50.560;7.268;2022-12-07T21:36:45;20.70;86.60
36556;DHT22;40859;50.560;7.268;2022-12-07T21:39:11;20.70;86.20
36556;DHT22;40859;50.560;7.268;2022-12-07T21:41:37;20.70;86.30
36556;DHT22;40859;50.560;7.268;2022-12-07T21:44:07;20.70;86.10
36556;DHT22;40859;50.560;7.268;2022-12-07T21:46:35;20.70;86.10
36556;DHT22;40859;50.560;7.268;2022-12-07T21:49:05;20.70;86.10
36556;DHT22;40859;50.560;7.268;2022-12-07T21:51:31;20.70;86.00
36556;DHT22;40859;50.560;7.268;2022-12-07T21:53:59;20.70;85.90
36556;DHT22;40859;50.560;7.268;2022-12-07T21:56:33;20.70;85.90
